Antiville, Indiana
Current Conditions -  °F | °C
As of 4:53 PM on Tuesday 25 Nov 2014 (Local Time) from KMIE Reporting Station
Overcast Overcast  
Wind Chill: 19°   Ceiling: 1400
Heat Index: 29°   Visibility: 10mi
Dew Point: 24°   Wind: 13mph
Humidity: 82%   Direction: 280°W
Pressure: 30.14"   Gusts: NA
Location:  40.4312°N, 85.0058°W
Report Text: KMIE 252153Z 28011KT 10SM OVC014 M02/M04 A3014 RMK AO2 SLP212 T10171044
Loading
Personal Weather Stations






























Interactive Weather Map New forecast layout! Learn more

10-Day Weather Forecast

Advertisements
Track Severe Weather on mobile